veryicon.com alexa rank chart, veryicon.com alexa rank daily changes

veryicon.com alexa rank chart, veryicon.com alexa rank daily changes

veryicon.com
Actual rank:
124 667

RANK HISTORY

Date Rank Diff
2017/09/25 124 667 -7 934
2017/09/24 132 601 +2 409
2017/09/23 130 192 +4 664
2017/09/22 125 528 +6 044
2017/09/20 119 484 -3 143
2017/09/19 122 627 -297
2017/09/18 122 924 -5 759
2017/09/17 128 683 +789
2017/09/16 127 894 -187
2017/09/15 128 081 -5 270
2017/09/14 133 351 -2 106
2017/09/13 135 457 -1 180
2017/09/12 136 637 +259
2017/09/11 136 378 +1 053
2017/09/10 135 325 +231
2017/09/09 135 094 +2 048
2017/09/08 133 046 -2 162
2017/09/07 135 208 -585
2017/09/06 135 793 +259
2017/09/05 135 534 -43
2017/09/04 135 577 +1 245
2017/09/03 134 332 -287
2017/09/02 134 619 -2 971
2017/09/01 137 590 +3 276
2017/08/31 134 314 -1 271
2017/08/30 135 585 -149
2017/08/29 135 734 +534
2017/08/28 135 200 +2 452
2017/08/27 132 748 -1 543
2017/08/26 134 291 -2 034
2017/08/25 136 325 -459
2017/08/24 136 784 +3 961
2017/08/23 132 823 -4 031
2017/08/22 136 854 -4 426
2017/08/21 141 280 -7 415
2017/08/20 148 695 -200
2017/08/19 148 895 +369
2017/08/18 148 526 -1 377
2017/08/17 149 903 -459
2017/08/16 150 362 +684
2017/08/15 149 678 -4 449
2017/08/14 154 127 +2 429
2017/08/13 151 698 +716
2017/08/12 150 982 +8 491
2017/08/11 142 491 +15 034
2017/08/10 127 457 +1 030
2017/08/09 126 427 -1 703
2017/08/08 128 130 +965
2017/08/07 127 165 -2 641
2017/08/06 129 806 +870
2017/08/05 128 936 +246
2017/08/04 128 690 +1 277
2017/08/03 127 413 +127
2017/08/02 127 286 +2 407
2017/08/01 124 879 -3 190
2017/07/31 128 069 +1 713
2017/07/30 126 356 +2 077
2017/07/29 124 279 +2 776
2017/07/28 121 503 -1 536
2017/07/27 123 039

WIDGET FOR YOUR SITE

DOMAINS WITH THE NEAREST RANK

Domain Rank
pagat.com 124 662
telestaff.net 124 663
updownload.com 124 664
newbdmovie.net 124 665
hcmuaf.edu.vn 124 666
veryicon.com 124 667
janahitam.com 124 668
citi.eu 124 669
aramco.com 124 670
literacynet.org 124 671
audiokinetic.com 124 672

DOMAINS WITH THE NEAREST RANK BY TLD .com

Domain Rank
dui1dui.com 124 652
odpiralnicasi.com 124 659
ketchum.com 124 661
pagat.com 124 662
updownload.com 124 664
veryicon.com 124 667
janahitam.com 124 668
aramco.com 124 670
audiokinetic.com 124 672
gosimian.com 124 677
4wd.com 124 678